ENAL/AES METAR and TAF weather

Enter ICAO airport designator
Station Type Date Time Source
ENAL METAR 2019/12/12 11:50 UTC NOAA

ENAL 121150Z 18014KT 9999 VCSH FEW013 BKN031 05/01 Q0981


Station Type Date Time Source
ENAL Decoded METAR 2019/12/12 11:50 UTC NOAA

Alesund / Vigra, Norway (ENAL) 62-34N 006-07E 22M
Dec 12, 2019 - 06:50 AM EST / 2019.12.12 1150 UTC
Wind: from the S (180 degrees) at 16 MPH (14 KT):0
Visibility: greater than 7 mile(s):0
Sky conditions: mostly cloudy
Weather: showers in the vicinity
Temperature: 41 F (5 C)
Dew Point: 33 F (1 C)
Relative Humidity: 75%
Pressure (altimeter): 28.97 in. Hg (0981 hPa)
ob: ENAL 121150Z 18014KT 9999 VCSH FEW013 BKN031 05/01 Q0981
cycle: 12

Station Type Date Time Source
ENAL TAF UTC NOAA

Error!

Example: see airport list